createdAt,value
2019-02-19T00:02:33.256Z,71.29
2019-02-19T00:05:20.529Z,71.62
2019-02-19T00:08:16.159Z,71.86
2019-02-19T00:33:01.334Z,73.03
2019-02-19T00:35:48.780Z,72.79
2019-02-19T00:48:02.591Z,73.52
2019-02-19T00:50:52.304Z,73.46
2019-02-19T00:53:54.335Z,73.51
2019-02-19T00:59:48.420Z,73.89
2019-02-19T01:08:48.784Z,74.11
2019-02-19T01:11:35.751Z,72.67
2019-02-19T01:14:23.298Z,73.65
2019-02-19T01:29:37.603Z,75.31
2019-02-19T01:32:24.719Z,74.60
2019-02-19T01:38:18.984Z,74.67
2019-02-19T01:41:06.389Z,74.64
2019-02-19T01:43:53.547Z,74.48
2019-02-19T01:46:41.695Z,74.51
2019-02-19T01:49:29.293Z,74.79
2019-02-19T02:04:41.753Z,75.47
2019-02-19T02:07:43.899Z,75.37
2019-02-19T02:10:45.776Z,75.13
2019-02-19T02:16:54.504Z,75.10
2019-02-19T02:19:42.022Z,75.00
2019-02-19T02:22:29.406Z,75.00
2019-02-19T02:28:37.714Z,74.89
2019-02-19T02:31:25.957Z,74.82
2019-02-19T02:34:13.318Z,74.70
2019-02-19T02:40:14.276Z,74.66
2019-02-19T03:04:56.421Z,74.59
2019-02-19T03:07:43.586Z,74.60
2019-02-19T03:13:37.879Z,74.85
2019-02-19T03:16:25.119Z,74.77
2019-02-19T03:31:37.617Z,75.03
2019-02-19T03:34:27.251Z,75.26
2019-02-19T03:37:28.861Z,75.43
2019-02-19T03:40:16.092Z,75.23
2019-02-19T03:43:03.298Z,75.47
2019-02-19T03:45:50.337Z,75.57
2019-02-19T03:48:37.354Z,75.73
2019-02-19T03:51:24.959Z,76.18
2019-02-19T04:00:25.505Z,76.61
2019-02-19T04:03:12.772Z,76.56
2019-02-19T04:06:00.166Z,76.35
2019-02-19T04:15:15.550Z,75.99
2019-02-19T04:18:04.207Z,74.77
2019-02-19T04:24:11.907Z,75.72
2019-02-19T04:26:59.348Z,75.93
2019-02-19T04:29:47.060Z,74.84
2019-02-19T04:32:34.278Z,75.51
2019-02-19T04:51:00.014Z,76.20
2019-02-19T05:00:14.003Z,75.66
2019-02-19T05:03:01.984Z,75.69
2019-02-19T05:05:49.868Z,75.61
2019-02-19T05:08:36.934Z,75.40
2019-02-19T05:11:31.595Z,75.22
2019-02-19T05:14:21.216Z,75.06
2019-02-19T05:17:08.521Z,75.10
2019-02-19T05:19:55.967Z,75.13
2019-02-19T05:22:43.280Z,75.06
2019-02-19T05:25:30.625Z,75.34
2019-02-19T05:28:17.847Z,74.15
2019-02-19T05:31:07.542Z,73.44
2019-02-19T05:33:54.841Z,74.51
2019-02-19T05:36:42.264Z,74.87
2019-02-19T05:42:36.644Z,75.00
2019-02-19T05:45:23.785Z,75.13
2019-02-19T05:48:10.905Z,75.41
2019-02-19T05:50:58.863Z,75.44
2019-02-19T05:53:46.449Z,75.42
2019-02-19T05:56:34.894Z,75.72
2019-02-19T05:59:23.652Z,75.93
2019-02-19T06:02:11.075Z,75.98
2019-02-19T06:04:58.480Z,76.02
2019-02-19T06:07:45.818Z,76.12
2019-02-19T06:10:35.989Z,76.25
2019-02-19T06:16:44.082Z,76.51
2019-02-19T06:22:39.535Z,76.93
2019-02-19T06:25:34.516Z,76.64
2019-02-19T06:28:22.248Z,76.62
2019-02-19T06:34:15.943Z,76.54
2019-02-19T06:37:17.780Z,76.38
2019-02-19T06:40:07.577Z,76.49
2019-02-19T06:42:55.189Z,76.45
2019-02-19T06:45:42.436Z,76.59
2019-02-19T06:51:50.640Z,76.43
2019-02-19T06:54:37.830Z,76.40
2019-02-19T06:57:25.101Z,76.45
2019-02-19T07:00:12.399Z,76.37
2019-02-19T07:03:00.047Z,74.65
2019-02-19T07:05:47.402Z,75.08
2019-02-19T07:08:50.740Z,75.62
2019-02-19T07:11:40.283Z,75.74
2019-02-19T07:14:43.727Z,75.59
2019-02-19T07:20:37.566Z,76.08
2019-02-19T07:23:25.046Z,75.84
2019-02-19T07:26:12.511Z,75.92
2019-02-19T07:28:59.693Z,75.97
2019-02-19T07:31:47.242Z,76.02
2019-02-19T07:34:34.508Z,75.77
2019-02-19T07:37:21.931Z,75.46
2019-02-19T07:40:09.278Z,75.28
2019-02-19T07:42:56.726Z,75.17
2019-02-19T07:45:43.952Z,75.04
2019-02-19T07:48:38.973Z,72.81
2019-02-19T07:51:26.217Z,73.61
2019-02-19T07:54:14.589Z,73.95
2019-02-19T07:57:02.142Z,73.96
2019-02-19T08:00:04.057Z,74.17
2019-02-19T08:02:51.419Z,74.11
2019-02-19T08:05:38.610Z,73.95
2019-02-19T08:11:31.863Z,73.76
2019-02-19T08:14:19.072Z,73.80
2019-02-19T08:17:06.210Z,71.00
2019-02-19T08:19:53.153Z,71.92
2019-02-19T08:22:40.399Z,72.14
2019-02-19T08:25:30.088Z,69.74
2019-02-19T08:31:24.339Z,71.21
2019-02-19T08:34:12.760Z,71.22
2019-02-19T08:37:00.016Z,71.06
2019-02-19T08:39:48.356Z,68.36
2019-02-19T08:42:35.774Z,69.34
2019-02-19T08:45:31.290Z,69.47
2019-02-19T08:48:18.350Z,70.23
2019-02-19T08:51:05.546Z,69.84
2019-02-19T08:53:53.661Z,69.96
2019-02-19T08:56:40.994Z,70.20
2019-02-19T08:59:35.764Z,69.99
2019-02-19T09:17:55.495Z,69.61
2019-02-19T09:20:42.649Z,69.43
2019-02-19T09:23:29.672Z,67.23
2019-02-19T09:26:17.190Z,68.37
2019-02-19T09:29:04.563Z,68.86
2019-02-19T09:32:06.335Z,68.21
2019-02-19T09:34:53.585Z,68.43
2019-02-19T09:37:55.905Z,67.76
2019-02-19T09:40:43.221Z,67.42
2019-02-19T09:46:45.240Z,66.84
2019-02-19T09:49:32.296Z,66.18
2019-02-19T09:52:20.321Z,66.45
2019-02-19T09:55:07.644Z,66.25
2019-02-19T09:58:01.769Z,65.43
2019-02-19T10:00:49.423Z,65.47
2019-02-19T10:03:36.692Z,64.82
2019-02-19T10:06:38.114Z,63.65
2019-02-19T10:12:39.647Z,63.38
2019-02-19T10:15:34.410Z,63.40
2019-02-19T10:18:21.506Z,63.24
2019-02-19T10:24:22.962Z,63.91
2019-02-19T10:27:12.453Z,64.12
2019-02-19T10:36:27.531Z,64.61
2019-02-19T10:39:14.650Z,61.14
2019-02-19T10:42:01.667Z,63.01
2019-02-19T10:44:50.038Z,63.71
2019-02-19T10:47:37.361Z,60.66
2019-02-19T10:50:24.349Z,58.85
2019-02-19T10:53:11.713Z,61.20
2019-02-19T10:55:58.837Z,62.08
2019-02-19T10:58:53.648Z,62.81
2019-02-19T11:01:40.923Z,63.40
2019-02-19T11:04:27.884Z,63.76
2019-02-19T11:07:15.461Z,64.25
2019-02-19T11:10:02.780Z,64.36
2019-02-19T11:19:02.404Z,62.36
2019-02-19T11:21:49.490Z,62.92
2019-02-19T11:24:36.788Z,63.39
2019-02-19T11:27:31.451Z,63.58
2019-02-19T11:30:20.248Z,63.62
2019-02-19T11:33:06.705Z,63.69
2019-02-19T11:35:54.844Z,64.12
2019-02-19T11:41:47.759Z,64.80
2019-02-19T11:47:41.072Z,64.95
2019-02-19T11:50:28.378Z,64.91
2019-02-19T11:53:16.056Z,64.78
2019-02-19T11:56:03.318Z,64.96
2019-02-19T11:58:50.547Z,64.91
2019-02-19T12:01:52.727Z,64.98
2019-02-19T12:04:54.433Z,65.15
2019-02-19T12:07:41.395Z,65.11
2019-02-19T12:10:28.376Z,65.16
2019-02-19T12:13:15.831Z,61.80
2019-02-19T12:16:10.518Z,63.83
2019-02-19T12:18:57.986Z,64.40
2019-02-19T12:21:45.284Z,64.66
2019-02-19T12:24:32.681Z,64.78
2019-02-19T12:30:27.590Z,61.22
2019-02-19T12:36:28.584Z,63.93
2019-02-19T12:39:15.770Z,64.48
2019-02-19T12:42:03.074Z,64.57
2019-02-19T12:44:53.059Z,64.89
2019-02-19T12:47:40.599Z,65.25
2019-02-19T12:50:28.230Z,65.34
2019-02-19T12:56:21.594Z,65.40
2019-02-19T12:59:08.909Z,65.05
2019-02-19T13:01:56.157Z,64.85
2019-02-19T13:07:49.772Z,64.53
2019-02-19T13:10:38.035Z,64.57
2019-02-19T13:13:26.091Z,64.36
2019-02-19T13:16:13.475Z,64.57
2019-02-19T13:19:03.526Z,64.38
2019-02-19T13:21:50.829Z,60.55
2019-02-19T13:24:51.956Z,62.86
2019-02-19T13:27:39.175Z,63.53
2019-02-19T13:39:45.550Z,63.34
2019-02-19T13:58:18.993Z,63.67
2019-02-19T14:07:19.418Z,61.97
2019-02-19T14:10:06.738Z,62.29
2019-02-19T14:12:54.304Z,61.84
2019-02-19T14:15:41.605Z,62.10
2019-02-19T14:18:37.346Z,61.83
2019-02-19T14:21:29.041Z,61.66
2019-02-19T14:24:46.565Z,57.97
2019-02-19T14:27:34.771Z,60.65
2019-02-19T14:37:04.806Z,61.35
2019-02-19T14:40:10.162Z,61.50
2019-02-19T14:46:10.876Z,61.59
2019-02-19T14:52:36.721Z,61.19
2019-02-19T14:55:24.327Z,61.05
2019-02-19T15:01:33.068Z,60.82
2019-02-19T15:07:52.518Z,60.70
2019-02-19T15:17:01.239Z,58.38
2019-02-19T15:19:57.550Z,57.41
2019-02-19T15:22:44.811Z,57.55
2019-02-19T15:25:45.643Z,56.69
2019-02-19T15:28:35.701Z,56.62
2019-02-19T15:31:46.377Z,55.66
2019-02-19T15:34:39.828Z,55.37
2019-02-19T15:37:33.694Z,55.44
2019-02-19T15:43:57.558Z,56.43
2019-02-19T15:46:51.235Z,56.10
2019-02-19T15:52:57.513Z,55.52
2019-02-19T15:56:02.915Z,56.31
2019-02-19T15:58:54.240Z,56.65
2019-02-19T16:01:41.852Z,56.99
2019-02-19T16:10:52.344Z,58.12
2019-02-19T16:13:58.268Z,58.28
2019-02-19T16:17:03.707Z,58.49
2019-02-19T16:23:04.369Z,58.24
2019-02-19T16:25:52.705Z,59.02
2019-02-19T16:31:48.008Z,60.21
2019-02-19T16:35:04.190Z,60.79
2019-02-19T16:37:54.985Z,61.20
2019-02-19T16:40:46.212Z,61.61
2019-02-19T16:43:37.327Z,62.02
2019-02-19T16:46:27.363Z,62.30
2019-02-19T16:49:29.241Z,62.62
2019-02-19T16:52:36.622Z,63.09
2019-02-19T16:55:40.571Z,63.32
2019-02-19T16:58:30.116Z,63.57
2019-02-19T17:08:15.868Z,64.54
2019-02-19T17:14:32.777Z,64.39
2019-02-19T17:17:26.366Z,64.15
2019-02-19T17:20:28.839Z,64.00
2019-02-19T17:23:11.448Z,63.96
2019-02-19T17:29:29.307Z,63.99
2019-02-19T17:35:23.463Z,64.26
2019-02-19T17:41:33.099Z,63.61
2019-02-19T17:44:20.511Z,63.91
2019-02-19T17:47:08.781Z,64.09
2019-02-19T17:50:12.984Z,64.38
2019-02-19T17:53:11.488Z,64.67
2019-02-19T17:56:14.215Z,62.40
2019-02-19T17:59:03.937Z,64.17
2019-02-19T18:01:51.821Z,64.62
2019-02-19T18:04:39.470Z,64.94
2019-02-19T18:07:32.625Z,65.09
2019-02-19T18:10:40.092Z,65.36
2019-02-19T18:13:45.938Z,65.63
2019-02-19T18:16:32.964Z,65.82
2019-02-19T18:19:34.751Z,66.04
2019-02-19T18:25:28.250Z,66.32
2019-02-19T18:31:21.471Z,66.85
2019-02-19T18:34:11.194Z,67.01
2019-02-19T18:36:58.148Z,67.43
2019-02-19T18:42:52.042Z,67.62
2019-02-19T18:48:50.279Z,67.91
2019-02-19T18:54:44.018Z,68.05
2019-02-19T18:57:38.791Z,68.28
2019-02-19T19:00:26.087Z,68.39
2019-02-19T19:09:35.312Z,68.64
2019-02-19T19:12:22.530Z,69.21
2019-02-19T19:15:17.703Z,68.09
2019-02-19T19:21:11.762Z,71.16
2019-02-19T19:23:59.186Z,71.21
2019-02-19T19:26:47.632Z,71.48
2019-02-19T19:29:35.422Z,71.44
2019-02-19T19:32:23.083Z,71.93
2019-02-19T19:35:10.646Z,70.19
2019-02-19T19:38:12.504Z,71.25
2019-02-19T19:40:59.999Z,71.87
2019-02-19T19:43:47.452Z,71.85
2019-02-19T19:46:34.752Z,71.29
2019-02-19T19:55:33.975Z,70.84
2019-02-19T19:58:21.417Z,70.66
2019-02-19T20:01:09.336Z,68.63
2019-02-19T20:03:56.634Z,69.79
2019-02-19T20:06:43.553Z,70.00
2019-02-19T20:09:31.075Z,69.88
2019-02-19T20:15:24.445Z,69.92
2019-02-19T20:18:19.336Z,70.10
2019-02-19T20:21:07.078Z,70.19
2019-02-19T20:27:03.411Z,69.68
2019-02-19T20:29:50.968Z,69.96
2019-02-19T20:32:38.472Z,70.05
2019-02-19T20:35:25.472Z,70.05
2019-02-19T20:38:12.481Z,70.00
2019-02-19T20:40:59.805Z,70.09
2019-02-19T20:43:46.946Z,70.27
2019-02-19T20:46:34.457Z,70.40
2019-02-19T20:49:21.686Z,70.25
2019-02-19T21:10:47.747Z,70.03
2019-02-19T21:13:38.015Z,70.11
2019-02-19T21:22:37.659Z,69.25
2019-02-19T21:25:30.769Z,69.21
2019-02-19T21:28:11.999Z,69.19
2019-02-19T21:34:05.538Z,69.76
2019-02-19T21:36:53.191Z,69.75
2019-02-19T21:39:39.998Z,70.01
2019-02-19T21:48:38.862Z,70.59
2019-02-19T21:51:26.309Z,70.67
2019-02-19T21:54:14.549Z,70.88
2019-02-19T22:00:15.113Z,71.15
2019-02-19T22:03:01.982Z,71.71
2019-02-19T22:05:50.137Z,71.47
2019-02-19T22:08:37.488Z,71.69
2019-02-19T22:14:31.980Z,71.59
2019-02-19T22:17:19.069Z,71.55
2019-02-19T22:20:21.244Z,71.46
2019-02-19T22:23:08.391Z,71.43
2019-02-19T22:25:55.677Z,71.77
2019-02-19T22:28:42.810Z,71.77
2019-02-19T22:31:30.233Z,72.20
2019-02-19T22:34:17.640Z,70.29
2019-02-19T22:40:11.247Z,71.02
2019-02-19T22:43:06.431Z,71.38
2019-02-19T22:46:08.596Z,71.58
2019-02-19T22:52:02.665Z,71.93
2019-02-19T22:54:50.515Z,70.21
2019-02-19T22:57:37.743Z,71.65
2019-02-19T23:10:02.749Z,72.10
2019-02-19T23:12:50.189Z,72.96
2019-02-19T23:18:44.774Z,73.52
2019-02-19T23:21:33.730Z,73.58
2019-02-19T23:24:21.157Z,74.05
2019-02-19T23:27:08.373Z,72.43
2019-02-19T23:29:55.692Z,73.80
2019-02-19T23:32:42.816Z,74.36
2019-02-19T23:35:36.272Z,74.78
2019-02-19T23:38:24.518Z,74.64
2019-02-19T23:41:14.793Z,74.68
2019-02-19T23:44:02.434Z,74.57
2019-02-19T23:47:04.347Z,75.11
2019-02-19T23:49:51.928Z,74.78
2019-02-19T23:55:45.611Z,75.03
2019-02-19T23:58:33.235Z,75.03
